sensor_id;sensor_type;location;lat;lon;timestamp;temperature;humidity
48728;DHT22;34527;45.618;5.130;2023-02-15T00:01:37;7.70;99.90
48728;DHT22;34527;45.618;5.130;2023-02-15T00:04:06;7.60;99.90
48728;DHT22;34527;45.618;5.130;2023-02-15T00:06:32;7.70;99.90
48728;DHT22;34527;45.618;5.130;2023-02-15T00:08:58;7.60;99.90
48728;DHT22;34527;45.618;5.130;2023-02-15T00:11:24;7.50;99.90
48728;DHT22;34527;45.618;5.130;2023-02-15T00:14:19;7.40;99.90
48728;DHT22;34527;45.618;5.130;2023-02-15T00:16:46;7.40;99.90
48728;DHT22;34527;45.618;5.130;2023-02-15T00:19:14;7.30;99.90
48728;DHT22;34527;45.618;5.130;2023-02-15T00:21:40;7.30;99.90
48728;DHT22;34527;45.618;5.130;2023-02-15T00:24:08;7.20;99.90
48728;DHT22;34527;45.618;5.130;2023-02-15T00:26:35;7.30;99.90
48728;DHT22;34527;45.618;5.130;2023-02-15T00:29:02;7.30;99.90
48728;DHT22;34527;45.618;5.130;2023-02-15T00:31:29;7.30;99.90
48728;DHT22;34527;45.618;5.130;2023-02-15T00:34:03;7.40;99.90
48728;DHT22;34527;45.618;5.130;2023-02-15T00:36:29;7.50;99.90
48728;DHT22;34527;45.618;5.130;2023-02-15T00:38:54;7.50;99.90
48728;DHT22;34527;45.618;5.130;2023-02-15T00:41:20;7.60;99.90
48728;DHT22;34527;45.618;5.130;2023-02-15T00:43:45;7.70;99.90
48728;DHT22;34527;45.618;5.130;2023-02-15T00:46:11;7.90;99.90
48728;DHT22;34527;45.618;5.130;2023-02-15T00:48:36;7.90;99.90
48728;DHT22;34527;45.618;5.130;2023-02-15T00:51:02;8.00;99.90
48728;DHT22;34527;45.618;5.130;2023-02-15T00:53:29;8.00;99.90
48728;DHT22;34527;45.618;5.130;2023-02-15T00:55:56;8.00;99.90
48728;DHT22;34527;45.618;5.130;2023-02-15T00:58:22;8.10;99.90
48728;DHT22;34527;45.618;5.130;2023-02-15T01:00:48;8.10;99.90
48728;DHT22;34527;45.618;5.130;2023-02-15T01:03:15;8.10;99.90
48728;DHT22;34527;45.618;5.130;2023-02-15T01:05:41;8.10;99.90
48728;DHT22;34527;45.618;5.130;2023-02-15T01:08:07;8.10;99.90
48728;DHT22;34527;45.618;5.130;2023-02-15T01:10:34;8.00;99.90
48728;DHT22;34527;45.618;5.130;2023-02-15T01:13:02;8.00;99.90
48728;DHT22;34527;45.618;5.130;2023-02-15T01:15:28;8.00;99.90
48728;DHT22;34527;45.618;5.130;2023-02-15T01:17:53;8.00;99.90
48728;DHT22;34527;45.618;5.130;2023-02-15T01:20:25;8.00;99.90
48728;DHT22;34527;45.618;5.130;2023-02-15T01:22:52;8.00;99.90
48728;DHT22;34527;45.618;5.130;2023-02-15T01:25:19;8.00;99.90
48728;DHT22;34527;45.618;5.130;2023-02-15T01:27:45;8.10;99.90
48728;DHT22;34527;45.618;5.130;2023-02-15T01:30:12;8.10;99.90
48728;DHT22;34527;45.618;5.130;2023-02-15T01:32:38;8.10;99.90
48728;DHT22;34527;45.618;5.130;2023-02-15T01:35:04;8.00;99.90
48728;DHT22;34527;45.618;5.130;2023-02-15T01:37:30;8.10;99.90
48728;DHT22;34527;45.618;5.130;2023-02-15T01:39:56;8.00;99.90
48728;DHT22;34527;45.618;5.130;2023-02-15T01:42:23;8.00;99.90
48728;DHT22;34527;45.618;5.130;2023-02-15T01:44:55;8.00;99.90
48728;DHT22;34527;45.618;5.130;2023-02-15T01:47:41;8.10;99.90
48728;DHT22;34527;45.618;5.130;2023-02-15T01:50:34;8.10;99.90
48728;DHT22;34527;45.618;5.130;2023-02-15T01:53:07;8.10;99.90
48728;DHT22;34527;45.618;5.130;2023-02-15T01:55:39;8.10;99.90
48728;DHT22;34527;45.618;5.130;2023-02-15T01:58:06;8.00;99.90
48728;DHT22;34527;45.618;5.130;2023-02-15T02:00:33;8.00;99.90
48728;DHT22;34527;45.618;5.130;2023-02-15T02:03:00;7.90;99.90
48728;DHT22;34527;45.618;5.130;2023-02-15T02:05:27;7.90;99.90
48728;DHT22;34527;45.618;5.130;2023-02-15T02:07:56;7.90;99.90
48728;DHT22;34527;45.618;5.130;2023-02-15T02:10:23;7.90;99.90
48728;DHT22;34527;45.618;5.130;2023-02-15T02:12:53;7.80;99.90
48728;DHT22;34527;45.618;5.130;2023-02-15T02:15:23;7.80;99.90
48728;DHT22;34527;45.618;5.130;2023-02-15T02:21:24;7.90;99.90
48728;DHT22;34527;45.618;5.130;2023-02-15T02:27:29;7.90;99.90
48728;DHT22;34527;45.618;5.130;2023-02-15T02:33:08;7.90;99.90
48728;DHT22;34527;45.618;5.130;2023-02-15T02:36:02;7.80;99.90
48728;DHT22;34527;45.618;5.130;2023-02-15T02:38:57;7.80;99.90
48728;DHT22;34527;45.618;5.130;2023-02-15T02:44:24;7.70;99.90
48728;DHT22;34527;45.618;5.130;2023-02-15T02:47:02;7.60;99.90
48728;DHT22;34527;45.618;5.130;2023-02-15T02:49:40;7.60;99.90
48728;DHT22;34527;45.618;5.130;2023-02-15T02:55:01;7.60;99.90
48728;DHT22;34527;45.618;5.130;2023-02-15T02:57:29;7.50;99.90
48728;DHT22;34527;45.618;5.130;2023-02-15T02:59:58;7.40;99.90
48728;DHT22;34527;45.618;5.130;2023-02-15T03:02:30;7.40;99.90
48728;DHT22;34527;45.618;5.130;2023-02-15T03:05:01;7.30;99.90
48728;DHT22;34527;45.618;5.130;2023-02-15T03:07:30;7.30;99.90
48728;DHT22;34527;45.618;5.130;2023-02-15T03:09:59;7.20;99.90
48728;DHT22;34527;45.618;5.130;2023-02-15T03:12:32;7.10;99.90
48728;DHT22;34527;45.618;5.130;2023-02-15T03:17:36;6.80;99.90
48728;DHT22;34527;45.618;5.130;2023-02-15T03:20:11;6.70;99.90
48728;DHT22;34527;45.618;5.130;2023-02-15T03:22:42;6.60;99.90
48728;DHT22;34527;45.618;5.130;2023-02-15T03:25:17;6.50;99.90
48728;DHT22;34527;45.618;5.130;2023-02-15T03:27:53;6.40;99.90
48728;DHT22;34527;45.618;5.130;2023-02-15T03:30:21;6.40;99.90
48728;DHT22;34527;45.618;5.130;2023-02-15T03:32:48;6.40;99.90
48728;DHT22;34527;45.618;5.130;2023-02-15T03:35:15;6.40;99.90
48728;DHT22;34527;45.618;5.130;2023-02-15T03:37:46;6.30;99.90
48728;DHT22;34527;45.618;5.130;2023-02-15T03:40:29;6.30;99.90
48728;DHT22;34527;45.618;5.130;2023-02-15T03:43:37;6.20;99.90
48728;DHT22;34527;45.618;5.130;2023-02-15T03:46:20;6.10;99.90
48728;DHT22;34527;45.618;5.130;2023-02-15T03:48:52;6.00;99.90
48728;DHT22;34527;45.618;5.130;2023-02-15T03:51:26;6.00;99.90
48728;DHT22;34527;45.618;5.130;2023-02-15T03:54:15;6.00;99.90
48728;DHT22;34527;45.618;5.130;2023-02-15T03:57:07;6.00;99.90
48728;DHT22;34527;45.618;5.130;2023-02-15T03:59:53;5.90;99.90
48728;DHT22;34527;45.618;5.130;2023-02-15T04:02:44;5.90;99.90
48728;DHT22;34527;45.618;5.130;2023-02-15T04:05:10;5.90;99.90
48728;DHT22;34527;45.618;5.130;2023-02-15T04:07:36;5.90;99.90
48728;DHT22;34527;45.618;5.130;2023-02-15T04:10:01;5.90;99.90
48728;DHT22;34527;45.618;5.130;2023-02-15T04:12:46;5.90;99.90
48728;DHT22;34527;45.618;5.130;2023-02-15T04:15:12;5.80;99.90
48728;DHT22;34527;45.618;5.130;2023-02-15T04:17:56;5.80;99.90
48728;DHT22;34527;45.618;5.130;2023-02-15T04:20:22;5.70;99.90
48728;DHT22;34527;45.618;5.130;2023-02-15T04:23:07;5.60;99.90
48728;DHT22;34527;45.618;5.130;2023-02-15T04:25:51;5.60;99.90
48728;DHT22;34527;45.618;5.130;2023-02-15T04:28:17;5.60;99.90
48728;DHT22;34527;45.618;5.130;2023-02-15T04:30:42;5.70;99.90
48728;DHT22;34527;45.618;5.130;2023-02-15T04:33:08;5.60;99.90
48728;DHT22;34527;45.618;5.130;2023-02-15T04:35:35;5.70;99.90
48728;DHT22;34527;45.618;5.130;2023-02-15T04:38:00;5.70;99.90
48728;DHT22;34527;45.618;5.130;2023-02-15T04:40:26;5.60;99.90
48728;DHT22;34527;45.618;5.130;2023-02-15T04:42:51;5.50;99.90
48728;DHT22;34527;45.618;5.130;2023-02-15T04:45:17;5.50;99.90
48728;DHT22;34527;45.618;5.130;2023-02-15T04:47:43;5.60;99.90
48728;DHT22;34527;45.618;5.130;2023-02-15T04:50:09;5.60;99.90
48728;DHT22;34527;45.618;5.130;2023-02-15T04:52:35;5.60;99.90
48728;DHT22;34527;45.618;5.130;2023-02-15T04:55:01;5.70;99.90
48728;DHT22;34527;45.618;5.130;2023-02-15T04:57:27;5.60;99.90
48728;DHT22;34527;45.618;5.130;2023-02-15T04:59:52;5.50;99.90
48728;DHT22;34527;45.618;5.130;2023-02-15T05:02:18;5.50;99.90
48728;DHT22;34527;45.618;5.130;2023-02-15T05:04:44;5.40;99.90
48728;DHT22;34527;45.618;5.130;2023-02-15T05:07:09;5.40;99.90
48728;DHT22;34527;45.618;5.130;2023-02-15T05:09:35;5.40;99.90
48728;DHT22;34527;45.618;5.130;2023-02-15T05:12:00;5.40;99.90
48728;DHT22;34527;45.618;5.130;2023-02-15T05:14:26;5.50;99.90
48728;DHT22;34527;45.618;5.130;2023-02-15T05:16:52;5.60;99.90
48728;DHT22;34527;45.618;5.130;2023-02-15T05:19:19;5.50;99.90
48728;DHT22;34527;45.618;5.130;2023-02-15T05:21:44;5.50;99.90
48728;DHT22;34527;45.618;5.130;2023-02-15T05:24:10;5.60;99.90
48728;DHT22;34527;45.618;5.130;2023-02-15T05:26:54;5.70;99.90
48728;DHT22;34527;45.618;5.130;2023-02-15T05:29:38;5.60;99.90
48728;DHT22;34527;45.618;5.130;2023-02-15T05:32:04;5.50;99.90
48728;DHT22;34527;45.618;5.130;2023-02-15T05:34:30;5.40;99.90
48728;DHT22;34527;45.618;5.130;2023-02-15T05:36:55;5.50;99.90
48728;DHT22;34527;45.618;5.130;2023-02-15T05:39:22;5.40;99.90
48728;DHT22;34527;45.618;5.130;2023-02-15T05:41:47;5.40;99.90
48728;DHT22;34527;45.618;5.130;2023-02-15T05:44:13;5.50;99.90
48728;DHT22;34527;45.618;5.130;2023-02-15T05:46:38;5.60;99.90
48728;DHT22;34527;45.618;5.130;2023-02-15T05:49:04;5.70;99.90
48728;DHT22;34527;45.618;5.130;2023-02-15T05:51:29;5.70;99.90
48728;DHT22;34527;45.618;5.130;2023-02-15T05:53:55;5.40;99.90
48728;DHT22;34527;45.618;5.130;2023-02-15T05:56:21;5.30;99.90
48728;DHT22;34527;45.618;5.130;2023-02-15T05:58:46;5.00;99.90
48728;DHT22;34527;45.618;5.130;2023-02-15T06:01:15;4.80;99.90
48728;DHT22;34527;45.618;5.130;2023-02-15T06:03:42;4.70;99.90
48728;DHT22;34527;45.618;5.130;2023-02-15T06:06:08;4.80;99.90
48728;DHT22;34527;45.618;5.130;2023-02-15T06:08:35;4.80;99.90
48728;DHT22;34527;45.618;5.130;2023-02-15T06:11:01;4.70;99.90
48728;DHT22;34527;45.618;5.130;2023-02-15T06:13:27;4.70;99.90
48728;DHT22;34527;45.618;5.130;2023-02-15T06:15:52;4.60;99.90
48728;DHT22;34527;45.618;5.130;2023-02-15T06:18:18;4.70;99.90
48728;DHT22;34527;45.618;5.130;2023-02-15T06:20:47;4.70;99.90
48728;DHT22;34527;45.618;5.130;2023-02-15T06:23:13;4.70;99.90
48728;DHT22;34527;45.618;5.130;2023-02-15T06:25:39;4.60;99.90
48728;DHT22;34527;45.618;5.130;2023-02-15T06:28:04;4.60;99.90
48728;DHT22;34527;45.618;5.130;2023-02-15T06:30:30;4.50;99.90
48728;DHT22;34527;45.618;5.130;2023-02-15T06:32:56;4.40;99.90
48728;DHT22;34527;45.618;5.130;2023-02-15T06:35:21;4.40;99.90
48728;DHT22;34527;45.618;5.130;2023-02-15T06:37:47;4.30;99.90
48728;DHT22;34527;45.618;5.130;2023-02-15T06:40:13;4.30;99.90
48728;DHT22;34527;45.618;5.130;2023-02-15T06:42:39;4.30;99.90
48728;DHT22;34527;45.618;5.130;2023-02-15T06:45:05;4.20;99.90
48728;DHT22;34527;45.618;5.130;2023-02-15T06:47:30;4.20;99.90
48728;DHT22;34527;45.618;5.130;2023-02-15T06:49:56;4.10;99.90
48728;DHT22;34527;45.618;5.130;2023-02-15T06:52:23;4.10;99.90
48728;DHT22;34527;45.618;5.130;2023-02-15T06:54:48;4.00;99.90
48728;DHT22;34527;45.618;5.130;2023-02-15T06:57:14;4.00;99.90
48728;DHT22;34527;45.618;5.130;2023-02-15T06:59:40;4.10;99.90
48728;DHT22;34527;45.618;5.130;2023-02-15T07:02:05;4.20;99.90
48728;DHT22;34527;45.618;5.130;2023-02-15T07:04:31;4.20;99.90
48728;DHT22;34527;45.618;5.130;2023-02-15T07:06:57;4.10;99.90
48728;DHT22;34527;45.618;5.130;2023-02-15T07:09:22;4.10;99.90
48728;DHT22;34527;45.618;5.130;2023-02-15T07:11:48;4.00;99.90
48728;DHT22;34527;45.618;5.130;2023-02-15T07:14:32;3.90;99.90
48728;DHT22;34527;45.618;5.130;2023-02-15T07:16:58;3.90;99.90
48728;DHT22;34527;45.618;5.130;2023-02-15T07:19:24;4.00;99.90
48728;DHT22;34527;45.618;5.130;2023-02-15T07:21:49;3.90;99.90
48728;DHT22;34527;45.618;5.130;2023-02-15T07:24:15;4.00;99.90
48728;DHT22;34527;45.618;5.130;2023-02-15T07:26:41;4.10;99.90
48728;DHT22;34527;45.618;5.130;2023-02-15T07:29:06;4.10;99.90
48728;DHT22;34527;45.618;5.130;2023-02-15T07:31:32;4.20;99.90
48728;DHT22;34527;45.618;5.130;2023-02-15T07:33:57;4.30;99.90
48728;DHT22;34527;45.618;5.130;2023-02-15T07:36:23;4.40;99.90
48728;DHT22;34527;45.618;5.130;2023-02-15T07:38:48;4.40;99.90
48728;DHT22;34527;45.618;5.130;2023-02-15T07:41:14;4.30;99.90
48728;DHT22;34527;45.618;5.130;2023-02-15T07:43:43;4.30;99.90
48728;DHT22;34527;45.618;5.130;2023-02-15T07:46:14;4.40;99.90
48728;DHT22;34527;45.618;5.130;2023-02-15T07:48:42;4.40;99.90
48728;DHT22;34527;45.618;5.130;2023-02-15T07:51:10;4.40;99.90
48728;DHT22;34527;45.618;5.130;2023-02-15T07:53:36;4.50;99.90
48728;DHT22;34527;45.618;5.130;2023-02-15T07:56:05;4.50;99.90
48728;DHT22;34527;45.618;5.130;2023-02-15T07:58:34;4.60;99.90
48728;DHT22;34527;45.618;5.130;2023-02-15T08:01:25;4.60;99.90
48728;DHT22;34527;45.618;5.130;2023-02-15T08:03:53;4.80;99.90
48728;DHT22;34527;45.618;5.130;2023-02-15T08:06:20;4.80;99.90
48728;DHT22;34527;45.618;5.130;2023-02-15T08:08:46;5.00;99.90
48728;DHT22;34527;45.618;5.130;2023-02-15T08:13:58;5.20;99.90
48728;DHT22;34527;45.618;5.130;2023-02-15T08:16:35;5.30;99.90
48728;DHT22;34527;45.618;5.130;2023-02-15T08:19:07;5.40;99.90
48728;DHT22;34527;45.618;5.130;2023-02-15T08:21:34;5.50;99.90
48728;DHT22;34527;45.618;5.130;2023-02-15T08:24:02;5.70;99.90
48728;DHT22;34527;45.618;5.130;2023-02-15T08:26:29;5.80;99.90
48728;DHT22;34527;45.618;5.130;2023-02-15T08:28:56;5.80;99.90
48728;DHT22;34527;45.618;5.130;2023-02-15T08:31:22;5.90;99.90
48728;DHT22;34527;45.618;5.130;2023-02-15T08:33:49;6.00;99.90
48728;DHT22;34527;45.618;5.130;2023-02-15T08:36:20;6.20;99.90
48728;DHT22;34527;45.618;5.130;2023-02-15T08:38:45;6.30;99.90
48728;DHT22;34527;45.618;5.130;2023-02-15T08:41:25;6.30;99.90
48728;DHT22;34527;45.618;5.130;2023-02-15T08:43:56;6.50;99.90
48728;DHT22;34527;45.618;5.130;2023-02-15T08:46:23;6.60;99.90
48728;DHT22;34527;45.618;5.130;2023-02-15T08:48:50;6.70;99.90
48728;DHT22;34527;45.618;5.130;2023-02-15T08:51:18;6.70;99.90
48728;DHT22;34527;45.618;5.130;2023-02-15T08:53:46;6.80;99.90
48728;DHT22;34527;45.618;5.130;2023-02-15T08:56:16;6.80;99.90
48728;DHT22;34527;45.618;5.130;2023-02-15T08:58:42;7.00;99.90
48728;DHT22;34527;45.618;5.130;2023-02-15T09:01:16;7.00;99.90
48728;DHT22;34527;45.618;5.130;2023-02-15T09:03:47;7.10;99.90
48728;DHT22;34527;45.618;5.130;2023-02-15T09:06:14;7.20;99.90
48728;DHT22;34527;45.618;5.130;2023-02-15T09:08:39;7.30;99.90
48728;DHT22;34527;45.618;5.130;2023-02-15T09:11:23;7.40;99.90
48728;DHT22;34527;45.618;5.130;2023-02-15T09:13:54;7.50;99.90
48728;DHT22;34527;45.618;5.130;2023-02-15T09:16:22;7.50;99.90
48728;DHT22;34527;45.618;5.130;2023-02-15T09:18:49;7.60;99.90
48728;DHT22;34527;45.618;5.130;2023-02-15T09:21:17;7.80;99.90
48728;DHT22;34527;45.618;5.130;2023-02-15T09:23:44;7.90;99.90
48728;DHT22;34527;45.618;5.130;2023-02-15T09:26:12;7.90;99.90
48728;DHT22;34527;45.618;5.130;2023-02-15T09:28:38;7.90;99.90
48728;DHT22;34527;45.618;5.130;2023-02-15T09:31:18;8.00;99.90
48728;DHT22;34527;45.618;5.130;2023-02-15T09:33:46;8.10;99.90
48728;DHT22;34527;45.618;5.130;2023-02-15T09:36:20;8.20;99.90
48728;DHT22;34527;45.618;5.130;2023-02-15T09:38:56;8.30;99.90
48728;DHT22;34527;45.618;5.130;2023-02-15T09:53:01;8.70;99.90
48728;DHT22;34527;45.618;5.130;2023-02-15T09:58:26;8.90;99.90
48728;DHT22;34527;45.618;5.130;2023-02-15T10:06:23;9.30;99.90
48728;DHT22;34527;45.618;5.130;2023-02-15T10:14:46;9.60;99.90
48728;DHT22;34527;45.618;5.130;2023-02-15T10:17:54;9.80;99.90
48728;DHT22;34527;45.618;5.130;2023-02-15T10:23:17;9.90;99.90
48728;DHT22;34527;45.618;5.130;2023-02-15T10:31:23;10.30;99.90
48728;DHT22;34527;45.618;5.130;2023-02-15T10:34:04;10.50;99.90
48728;DHT22;34527;45.618;5.130;2023-02-15T10:42:30;11.00;99.90
48728;DHT22;34527;45.618;5.130;2023-02-15T10:45:20;11.40;99.90
48728;DHT22;34527;45.618;5.130;2023-02-15T10:47:59;11.60;99.90
48728;DHT22;34527;45.618;5.130;2023-02-15T10:50:47;11.70;99.90
48728;DHT22;34527;45.618;5.130;2023-02-15T11:01:44;12.10;99.90
48728;DHT22;34527;45.618;5.130;2023-02-15T11:04:39;12.30;99.90
48728;DHT22;34527;45.618;5.130;2023-02-15T11:07:25;12.30;99.90
48728;DHT22;34527;45.618;5.130;2023-02-15T11:10:23;12.40;99.90
48728;DHT22;34527;45.618;5.130;2023-02-15T11:12:50;12.40;99.90
48728;DHT22;34527;45.618;5.130;2023-02-15T11:15:35;12.40;99.90
48728;DHT22;34527;45.618;5.130;2023-02-15T11:23:27;12.30;99.90
48728;DHT22;34527;45.618;5.130;2023-02-15T11:26:01;12.40;99.90
48728;DHT22;34527;45.618;5.130;2023-02-15T11:28:47;12.40;99.90
48728;DHT22;34527;45.618;5.130;2023-02-15T11:31:23;12.30;99.90
48728;DHT22;34527;45.618;5.130;2023-02-15T11:33:57;12.30;99.90
48728;DHT22;34527;45.618;5.130;2023-02-15T11:36:34;12.30;99.90
48728;DHT22;34527;45.618;5.130;2023-02-15T11:39:10;12.30;99.90
48728;DHT22;34527;45.618;5.130;2023-02-15T11:41:59;12.30;99.90
48728;DHT22;34527;45.618;5.130;2023-02-15T11:44:37;12.50;99.90
48728;DHT22;34527;45.618;5.130;2023-02-15T11:47:10;12.50;99.90
48728;DHT22;34527;45.618;5.130;2023-02-15T11:49:36;12.50;99.90
48728;DHT22;34527;45.618;5.130;2023-02-15T11:52:10;12.60;99.90
48728;DHT22;34527;45.618;5.130;2023-02-15T11:54:45;12.60;99.90
48728;DHT22;34527;45.618;5.130;2023-02-15T11:57:19;12.70;99.90
48728;DHT22;34527;45.618;5.130;2023-02-15T11:59:58;12.60;99.90
48728;DHT22;34527;45.618;5.130;2023-02-15T12:02:25;12.70;99.90
48728;DHT22;34527;45.618;5.130;2023-02-15T12:05:03;12.80;99.90
48728;DHT22;34527;45.618;5.130;2023-02-15T12:07:42;12.90;99.90
48728;DHT22;34527;45.618;5.130;2023-02-15T12:12:47;13.10;99.90
48728;DHT22;34527;45.618;5.130;2023-02-15T12:15:13;13.10;99.90
48728;DHT22;34527;45.618;5.130;2023-02-15T12:17:41;13.20;99.90
48728;DHT22;34527;45.618;5.130;2023-02-15T12:22:39;13.30;99.90
48728;DHT22;34527;45.618;5.130;2023-02-15T12:25:36;13.40;99.90
48728;DHT22;34527;45.618;5.130;2023-02-15T12:28:04;13.40;99.90
48728;DHT22;34527;45.618;5.130;2023-02-15T12:30:32;13.50;99.90
48728;DHT22;34527;45.618;5.130;2023-02-15T12:33:23;13.70;99.90
48728;DHT22;34527;45.618;5.130;2023-02-15T12:36:06;13.70;99.90
48728;DHT22;34527;45.618;5.130;2023-02-15T12:38:33;13.80;99.90
48728;DHT22;34527;45.618;5.130;2023-02-15T12:41:23;13.90;99.90
48728;DHT22;34527;45.618;5.130;2023-02-15T12:46:40;14.00;99.90
48728;DHT22;34527;45.618;5.130;2023-02-15T12:49:13;14.10;99.90
48728;DHT22;34527;45.618;5.130;2023-02-15T12:54:41;14.30;99.90
48728;DHT22;34527;45.618;5.130;2023-02-15T13:02:41;14.70;99.90
48728;DHT22;34527;45.618;5.130;2023-02-15T13:07:45;14.70;99.90
48728;DHT22;34527;45.618;5.130;2023-02-15T13:10:27;14.60;99.90
48728;DHT22;34527;45.618;5.130;2023-02-15T13:12:55;14.70;99.90
48728;DHT22;34527;45.618;5.130;2023-02-15T13:15:26;14.70;99.90
48728;DHT22;34527;45.618;5.130;2023-02-15T13:17:54;14.60;99.90
48728;DHT22;34527;45.618;5.130;2023-02-15T13:20:21;14.50;99.90
48728;DHT22;34527;45.618;5.130;2023-02-15T13:22:51;14.50;99.90
48728;DHT22;34527;45.618;5.130;2023-02-15T13:25:24;14.50;99.90
48728;DHT22;34527;45.618;5.130;2023-02-15T13:27:54;14.40;99.90
48728;DHT22;34527;45.618;5.130;2023-02-15T13:30:24;14.30;99.90
48728;DHT22;34527;45.618;5.130;2023-02-15T13:32:55;14.30;99.90
48728;DHT22;34527;45.618;5.130;2023-02-15T13:35:23;14.50;99.90
48728;DHT22;34527;45.618;5.130;2023-02-15T13:38:57;14.40;99.90
48728;DHT22;34527;45.618;5.130;2023-02-15T13:41:04;14.40;99.90
48728;DHT22;34527;45.618;5.130;2023-02-15T13:54:21;14.30;99.90
48728;DHT22;34527;45.618;5.130;2023-02-15T14:00:21;14.40;99.90
48728;DHT22;34527;45.618;5.130;2023-02-15T14:08:14;14.50;99.90
48728;DHT22;34527;45.618;5.130;2023-02-15T14:10:50;14.50;99.90
48728;DHT22;34527;45.618;5.130;2023-02-15T14:13:39;14.50;99.90
48728;DHT22;34527;45.618;5.130;2023-02-15T14:16:21;14.50;99.90
48728;DHT22;34527;45.618;5.130;2023-02-15T14:21:21;14.50;99.90
48728;DHT22;34527;45.618;5.130;2023-02-15T14:26:39;14.50;99.90
48728;DHT22;34527;45.618;5.130;2023-02-15T14:29:20;14.50;99.90
48728;DHT22;34527;45.618;5.130;2023-02-15T14:31:56;14.60;99.90
48728;DHT22;34527;45.618;5.130;2023-02-15T14:34:36;14.70;99.90
48728;DHT22;34527;45.618;5.130;2023-02-15T14:37:11;14.60;99.90
48728;DHT22;34527;45.618;5.130;2023-02-15T14:39:57;14.70;99.90
48728;DHT22;34527;45.618;5.130;2023-02-15T14:42:59;14.70;99.90
48728;DHT22;34527;45.618;5.130;2023-02-15T14:45:29;14.70;99.90
48728;DHT22;34527;45.618;5.130;2023-02-15T14:50:39;14.80;99.90
48728;DHT22;34527;45.618;5.130;2023-02-15T14:58:36;15.00;99.90
48728;DHT22;34527;45.618;5.130;2023-02-15T15:01:10;15.00;99.90
48728;DHT22;34527;45.618;5.130;2023-02-15T15:03:36;14.90;99.90
48728;DHT22;34527;45.618;5.130;2023-02-15T15:06:32;14.90;99.90
48728;DHT22;34527;45.618;5.130;2023-02-15T15:09:22;14.90;99.90
48728;DHT22;34527;45.618;5.130;2023-02-15T15:11:51;14.70;99.90
48728;DHT22;34527;45.618;5.130;2023-02-15T15:14:43;14.60;99.90
48728;DHT22;34527;45.618;5.130;2023-02-15T15:17:13;14.50;99.90
48728;DHT22;34527;45.618;5.130;2023-02-15T15:22:24;14.40;99.90
48728;DHT22;34527;45.618;5.130;2023-02-15T15:24:54;14.40;99.90
48728;DHT22;34527;45.618;5.130;2023-02-15T15:27:46;14.40;99.90
48728;DHT22;34527;45.618;5.130;2023-02-15T15:41:20;14.20;99.90
48728;DHT22;34527;45.618;5.130;2023-02-15T15:47:31;14.10;99.90
48728;DHT22;34527;45.618;5.130;2023-02-15T15:49:38;14.10;99.90
48728;DHT22;34527;45.618;5.130;2023-02-15T15:52:19;14.00;99.90
48728;DHT22;34527;45.618;5.130;2023-02-15T15:54:51;14.00;99.90
48728;DHT22;34527;45.618;5.130;2023-02-15T15:57:30;13.90;99.90
48728;DHT22;34527;45.618;5.130;2023-02-15T15:59:58;13.90;99.90
48728;DHT22;34527;45.618;5.130;2023-02-15T16:02:25;13.90;99.90
48728;DHT22;34527;45.618;5.130;2023-02-15T16:04:50;13.90;99.90
48728;DHT22;34527;45.618;5.130;2023-02-15T16:12:19;13.70;99.90
48728;DHT22;34527;45.618;5.130;2023-02-15T16:14:45;13.70;99.90
48728;DHT22;34527;45.618;5.130;2023-02-15T16:17:25;13.70;99.90
48728;DHT22;34527;45.618;5.130;2023-02-15T16:19:51;13.60;99.90
48728;DHT22;34527;45.618;5.130;2023-02-15T16:22:24;13.50;99.90
48728;DHT22;34527;45.618;5.130;2023-02-15T16:27:45;13.30;99.90
48728;DHT22;34527;45.618;5.130;2023-02-15T16:30:31;13.10;99.90
48728;DHT22;34527;45.618;5.130;2023-02-15T16:33:11;13.00;99.90
48728;DHT22;34527;45.618;5.130;2023-02-15T16:35:40;12.90;99.90
48728;DHT22;34527;45.618;5.130;2023-02-15T16:38:09;12.80;99.90
48728;DHT22;34527;45.618;5.130;2023-02-15T16:40:46;12.70;99.90
48728;DHT22;34527;45.618;5.130;2023-02-15T16:43:21;12.60;99.90
48728;DHT22;34527;45.618;5.130;2023-02-15T16:45:49;12.40;99.90
48728;DHT22;34527;45.618;5.130;2023-02-15T16:48:20;12.30;99.90
48728;DHT22;34527;45.618;5.130;2023-02-15T16:50:51;12.20;99.90
48728;DHT22;34527;45.618;5.130;2023-02-15T16:53:24;12.10;99.90
48728;DHT22;34527;45.618;5.130;2023-02-15T16:55:53;11.70;99.90
48728;DHT22;34527;45.618;5.130;2023-02-15T16:58:26;11.60;99.90
48728;DHT22;34527;45.618;5.130;2023-02-15T17:00:55;11.30;99.90
48728;DHT22;34527;45.618;5.130;2023-02-15T17:03:23;11.10;99.90
48728;DHT22;34527;45.618;5.130;2023-02-15T17:05:55;10.90;99.90
48728;DHT22;34527;45.618;5.130;2023-02-15T17:08:35;10.80;99.90
48728;DHT22;34527;45.618;5.130;2023-02-15T17:16:31;10.40;99.90
48728;DHT22;34527;45.618;5.130;2023-02-15T17:19:00;10.30;99.90
48728;DHT22;34527;45.618;5.130;2023-02-15T17:21:40;10.20;99.90
48728;DHT22;34527;45.618;5.130;2023-02-15T17:24:16;9.90;99.90
48728;DHT22;34527;45.618;5.130;2023-02-15T17:26:43;9.90;99.90
48728;DHT22;34527;45.618;5.130;2023-02-15T17:29:38;9.90;99.90
48728;DHT22;34527;45.618;5.130;2023-02-15T17:32:09;9.90;99.90
48728;DHT22;34527;45.618;5.130;2023-02-15T17:35:06;9.90;99.90
48728;DHT22;34527;45.618;5.130;2023-02-15T17:40:24;9.70;99.90
48728;DHT22;34527;45.618;5.130;2023-02-15T17:42:50;9.50;99.90
48728;DHT22;34527;45.618;5.130;2023-02-15T17:45:16;9.40;99.90
48728;DHT22;34527;45.618;5.130;2023-02-15T17:47:42;9.20;99.90
48728;DHT22;34527;45.618;5.130;2023-02-15T17:50:20;9.10;99.90
48728;DHT22;34527;45.618;5.130;2023-02-15T17:52:46;9.00;99.90
48728;DHT22;34527;45.618;5.130;2023-02-15T17:55:14;9.00;99.90
48728;DHT22;34527;45.618;5.130;2023-02-15T17:57:59;8.90;99.90
48728;DHT22;34527;45.618;5.130;2023-02-15T18:00:25;8.80;99.90
48728;DHT22;34527;45.618;5.130;2023-02-15T18:03:10;8.80;99.90
48728;DHT22;34527;45.618;5.130;2023-02-15T18:05:55;8.70;99.90
48728;DHT22;34527;45.618;5.130;2023-02-15T18:08:39;8.70;99.90
48728;DHT22;34527;45.618;5.130;2023-02-15T18:11:23;8.60;99.90
48728;DHT22;34527;45.618;5.130;2023-02-15T18:14:05;8.50;99.90
48728;DHT22;34527;45.618;5.130;2023-02-15T18:16:40;8.50;99.90
48728;DHT22;34527;45.618;5.130;2023-02-15T18:19:21;8.50;99.90
48728;DHT22;34527;45.618;5.130;2023-02-15T18:21:48;8.40;99.90
48728;DHT22;34527;45.618;5.130;2023-02-15T18:24:23;8.30;99.90
48728;DHT22;34527;45.618;5.130;2023-02-15T18:26:49;8.30;99.90
48728;DHT22;34527;45.618;5.130;2023-02-15T18:29:16;8.30;99.90
48728;DHT22;34527;45.618;5.130;2023-02-15T18:31:43;8.20;99.90
48728;DHT22;34527;45.618;5.130;2023-02-15T18:34:26;8.10;99.90
48728;DHT22;34527;45.618;5.130;2023-02-15T18:36:53;8.10;99.90
48728;DHT22;34527;45.618;5.130;2023-02-15T18:39:37;8.20;99.90
48728;DHT22;34527;45.618;5.130;2023-02-15T18:42:05;8.10;99.90
48728;DHT22;34527;45.618;5.130;2023-02-15T18:44:31;8.10;99.90
48728;DHT22;34527;45.618;5.130;2023-02-15T18:46:57;8.00;99.90
48728;DHT22;34527;45.618;5.130;2023-02-15T18:49:22;8.10;99.90
48728;DHT22;34527;45.618;5.130;2023-02-15T18:51:48;7.70;99.90